Country
Station

 

Weather  for  Vladivostok  -  Russian Federation    Russian Federation

  
2 °C (36 °F)
    
 
 

Current METAR for Vladivostok is :

UHWW 221600Z 00000MPS 8000 BKN033 02/02 Q1025 R07R/820255 NOSIG RMK QFE768

 

This is a report for Vladivostok - Russian Federation.
 
The report was made 36 minutes ago, at 16:00 UTC .
The wind was calm.
 
The temperature was 2 °C (36 °F), with a dew-point at 2 °C (36 °F).
The atmospheric pressure was 1025 hPa (30.27 inHg).
The relative humidity was 100.0%.
 
There were broken clouds at a height of 1006 meters (3300 feet).
 
The overall visibility was 8.0 kilometers (5.0 miles).
 

 
 
 
 

Country :   A   B   C   D   E   F   G   H   I   J   K   L   M   N   O   P   Q   R   S   T   U   V   W   Y   Z

 

Site Info  |  Disclaimer  |  Credits  |  Privacy
Contact us  |  Add to favorites
© 2013-2019 METARs - All rights reserved